createdAt,value
2022-09-23T00:01:08.590Z,95299.94
2022-09-23T00:03:37.492Z,95302.59
2022-09-23T00:06:13.009Z,95311.63
2022-09-23T00:08:40.926Z,95305.88
2022-09-23T00:11:10.729Z,95303.22
2022-09-23T00:13:39.244Z,95316.44
2022-09-23T00:16:08.246Z,95307.50
2022-09-23T00:18:35.457Z,95311.16
2022-09-23T00:21:05.473Z,95309.06
2022-09-23T00:23:32.904Z,95313.31
2022-09-23T00:26:02.372Z,95314.34
2022-09-23T00:28:30.004Z,95315.94
2022-09-23T00:30:57.178Z,95317.00
2022-09-23T00:33:24.116Z,95301.50
2022-09-23T00:35:50.857Z,95309.91
2022-09-23T00:38:17.732Z,95304.34
2022-09-23T00:40:47.441Z,95307.78
2022-09-23T00:43:17.803Z,95311.19
2022-09-23T00:45:48.728Z,95301.19
2022-09-23T00:48:20.986Z,95307.53
2022-09-23T00:50:53.540Z,95304.09
2022-09-23T00:53:23.852Z,95295.13
2022-09-23T00:55:56.139Z,95302.78
2022-09-23T00:58:31.211Z,95310.66
2022-09-23T01:01:02.381Z,95313.03
2022-09-23T01:03:30.947Z,95316.19
2022-09-23T01:05:58.604Z,95313.31
2022-09-23T01:08:27.420Z,95311.19
2022-09-23T01:11:14.270Z,95312.00
2022-09-23T01:14:05.566Z,95313.31
2022-09-23T01:16:54.742Z,95310.09
2022-09-23T01:19:36.416Z,95304.63
2022-09-23T01:22:28.047Z,95307.50
2022-09-23T01:25:35.944Z,95307.25
2022-09-23T01:28:05.471Z,95320.63
2022-09-23T01:30:50.987Z,95323.22
2022-09-23T01:33:40.780Z,95311.09
2022-09-23T01:36:10.442Z,95312.16
2022-09-23T01:39:03.086Z,95316.91
2022-09-23T01:42:02.458Z,95320.84
2022-09-23T01:44:39.130Z,95312.66
2022-09-23T01:47:14.239Z,95319.75
2022-09-23T01:50:40.058Z,95334.50
2022-09-23T01:53:14.512Z,95309.44
2022-09-23T01:55:49.243Z,95326.88
2022-09-23T01:58:24.622Z,95324.78
2022-09-23T02:00:58.871Z,95311.28
2022-09-23T02:03:48.033Z,95314.25
2022-09-23T02:06:28.205Z,95316.28
2022-09-23T02:09:03.587Z,95318.53
2022-09-23T02:11:36.436Z,95326.28
2022-09-23T02:14:15.537Z,95323.66
2022-09-23T02:16:49.461Z,95313.28
2022-09-23T02:19:48.648Z,95320.63
2022-09-23T02:22:23.563Z,95321.50
2022-09-23T02:24:50.752Z,95313.19
2022-09-23T02:27:57.144Z,95320.00
2022-09-23T02:30:32.113Z,95301.78
2022-09-23T02:33:05.471Z,95319.88
2022-09-23T02:35:55.917Z,95317.50
2022-09-23T02:38:40.527Z,95313.66
2022-09-23T02:41:28.563Z,95313.41
2022-09-23T02:44:01.475Z,95318.41
2022-09-23T02:46:32.783Z,95316.22
2022-09-23T02:49:05.758Z,95323.00
2022-09-23T02:51:38.772Z,95305.31
2022-09-23T02:54:10.698Z,95319.25
2022-09-23T02:56:37.557Z,95334.31
2022-09-23T02:59:05.094Z,95341.41
2022-09-23T03:01:47.647Z,95318.41
2022-09-23T03:04:38.551Z,95335.78
2022-09-23T03:07:10.562Z,95338.03
2022-09-23T03:09:44.884Z,95337.59
2022-09-23T03:12:32.385Z,95339.50
2022-09-23T03:15:09.375Z,95328.16
2022-09-23T03:17:50.741Z,95345.31
2022-09-23T03:20:54.520Z,95331.44
2022-09-23T03:23:38.459Z,95328.44
2022-09-23T03:26:12.297Z,95304.97
2022-09-23T03:28:43.234Z,95327.72
2022-09-23T03:31:15.442Z,95329.88
2022-09-23T03:33:47.218Z,95324.28
2022-09-23T03:36:37.329Z,95329.22
2022-09-23T03:39:14.047Z,95329.00
2022-09-23T03:41:50.962Z,95340.75
2022-09-23T03:44:19.695Z,95333.44
2022-09-23T03:46:49.939Z,95334.16
2022-09-23T03:49:27.655Z,95334.72
2022-09-23T03:51:56.008Z,95343.84
2022-09-23T03:54:22.773Z,95346.63
2022-09-23T03:56:49.797Z,95343.06
2022-09-23T03:59:17.306Z,95348.91
2022-09-23T04:01:44.226Z,95348.91
2022-09-23T04:04:11.621Z,95351.03
2022-09-23T04:06:38.484Z,95357.91
2022-09-23T04:09:05.249Z,95359.19
2022-09-23T04:11:32.227Z,95366.53
2022-09-23T04:13:58.995Z,95356.94
2022-09-23T04:16:26.093Z,95363.41
2022-09-23T04:18:53.184Z,95363.28
2022-09-23T04:21:20.057Z,95356.34
2022-09-23T04:23:46.786Z,95364.16
2022-09-23T04:26:14.177Z,95372.19
2022-09-23T04:28:41.058Z,95369.56
2022-09-23T04:31:09.503Z,95366.19
2022-09-23T04:33:37.676Z,95370.63
2022-09-23T04:36:04.654Z,95378.03
2022-09-23T04:38:31.611Z,95373.56
2022-09-23T04:40:58.904Z,95376.66
2022-09-23T04:43:25.811Z,95391.00
2022-09-23T04:46:00.593Z,95389.38
2022-09-23T04:48:28.325Z,95383.03
2022-09-23T04:51:07.736Z,95383.47
2022-09-23T04:53:39.144Z,95390.19
2022-09-23T04:56:11.787Z,95387.25
2022-09-23T04:58:39.974Z,95395.44
2022-09-23T05:01:26.830Z,95396.78
2022-09-23T05:04:01.514Z,95392.44
2022-09-23T05:06:29.987Z,95384.28
2022-09-23T05:08:59.247Z,95390.50
2022-09-23T05:11:27.129Z,95395.66
2022-09-23T05:13:54.606Z,95392.19
2022-09-23T05:16:23.879Z,95390.34
2022-09-23T05:18:51.800Z,95392.63
2022-09-23T05:21:24.511Z,95386.88
2022-09-23T05:23:58.930Z,95393.72
2022-09-23T05:26:28.045Z,95394.50
2022-09-23T05:28:55.489Z,95387.91
2022-09-23T05:31:25.324Z,95404.78
2022-09-23T05:33:57.497Z,95405.97
2022-09-23T05:36:26.127Z,95405.06
2022-09-23T05:38:54.769Z,95412.16
2022-09-23T05:41:25.290Z,95407.25
2022-09-23T05:43:53.519Z,95412.75
2022-09-23T05:46:28.226Z,95412.78
2022-09-23T05:49:01.192Z,95403.22
2022-09-23T05:51:31.065Z,95404.75
2022-09-23T05:54:00.077Z,95393.28
2022-09-23T05:56:28.371Z,95407.09
2022-09-23T05:58:57.209Z,95397.13
2022-09-23T06:01:33.498Z,95356.75
2022-09-23T06:04:02.157Z,95399.03
2022-09-23T06:06:41.495Z,95395.69
2022-09-23T06:09:13.488Z,95389.25
2022-09-23T06:11:41.227Z,95392.69
2022-09-23T06:14:14.866Z,95383.06
2022-09-23T06:16:43.087Z,95314.47
2022-09-23T06:19:10.481Z,95388.81
2022-09-23T06:21:39.228Z,95394.88
2022-09-23T06:24:08.109Z,95400.13
2022-09-23T06:26:37.599Z,95403.16
2022-09-23T06:29:10.208Z,95400.63
2022-09-23T06:31:37.257Z,95394.25
2022-09-23T06:34:11.698Z,95380.66
2022-09-23T06:36:44.546Z,95386.94
2022-09-23T06:39:13.959Z,95388.56
2022-09-23T06:41:40.712Z,95394.34
2022-09-23T06:44:12.273Z,95402.72
2022-09-23T06:46:41.156Z,95396.53
2022-09-23T06:49:08.317Z,95395.47
2022-09-23T06:51:35.052Z,95408.28
2022-09-23T06:54:02.085Z,95399.25
2022-09-23T06:56:29.064Z,95404.69
2022-09-23T06:58:56.030Z,95401.19
2022-09-23T07:01:23.307Z,95409.47
2022-09-23T07:03:50.525Z,95411.78
2022-09-23T07:06:17.523Z,95411.25
2022-09-23T07:08:47.042Z,95419.19
2022-09-23T07:11:15.283Z,95413.94
2022-09-23T07:13:42.844Z,95417.09
2022-09-23T07:16:11.006Z,95409.69
2022-09-23T07:18:38.835Z,95412.84
2022-09-23T07:21:18.060Z,95421.84
2022-09-23T07:23:47.377Z,95418.66
2022-09-23T07:26:15.212Z,95408.81
2022-09-23T07:28:42.122Z,95415.16
2022-09-23T07:31:14.754Z,95420.22
2022-09-23T07:33:44.210Z,95424.97
2022-09-23T07:36:18.071Z,95426.97
2022-09-23T07:38:46.315Z,95429.00
2022-09-23T07:41:15.888Z,95418.97
2022-09-23T07:43:44.184Z,95425.25
2022-09-23T07:46:14.473Z,95422.50
2022-09-23T07:48:41.329Z,95414.47
2022-09-23T07:51:09.220Z,95411.53
2022-09-23T07:53:36.984Z,95412.38
2022-09-23T07:56:07.349Z,95407.19
2022-09-23T07:58:35.073Z,95398.97
2022-09-23T08:01:06.497Z,95413.66
2022-09-23T08:03:33.601Z,95398.50
2022-09-23T08:06:07.878Z,95413.00
2022-09-23T08:08:39.372Z,95426.28
2022-09-23T08:11:10.322Z,95423.03
2022-09-23T08:13:37.445Z,95407.97
2022-09-23T08:16:04.625Z,95417.47
2022-09-23T08:18:31.537Z,95413.41
2022-09-23T08:20:58.315Z,95403.47
2022-09-23T08:23:25.804Z,95404.50
2022-09-23T08:26:02.888Z,95408.47
2022-09-23T08:28:30.561Z,95411.34
2022-09-23T08:30:57.540Z,95402.28
2022-09-23T08:33:24.564Z,95401.63
2022-09-23T08:35:52.270Z,95411.22
2022-09-23T08:38:20.630Z,95408.03
2022-09-23T08:40:50.077Z,95407.72
2022-09-23T08:43:32.197Z,95407.38
2022-09-23T08:46:04.904Z,95387.56
2022-09-23T08:48:46.714Z,95398.75
2022-09-23T08:51:26.062Z,95403.03
2022-09-23T08:53:53.178Z,95397.75
2022-09-23T08:56:22.899Z,95401.09
2022-09-23T08:59:17.332Z,95400.69
2022-09-23T09:01:59.378Z,95394.78
2022-09-23T09:04:37.523Z,95389.94
2022-09-23T09:07:31.834Z,95382.97
2022-09-23T09:10:04.551Z,95387.88
2022-09-23T09:12:40.987Z,95388.13
2022-09-23T09:15:14.643Z,95390.31
2022-09-23T09:18:01.344Z,95388.28
2022-09-23T09:20:28.129Z,95393.19
2022-09-23T09:23:02.338Z,95389.22
2022-09-23T09:25:48.528Z,95396.13
2022-09-23T09:28:24.669Z,95386.66
2022-09-23T09:30:56.505Z,95391.38
2022-09-23T09:33:51.572Z,95380.97
2022-09-23T09:36:30.834Z,95384.19
2022-09-23T09:39:00.970Z,95376.59
2022-09-23T09:41:31.572Z,95387.41
2022-09-23T09:44:03.507Z,95375.47
2022-09-23T09:46:46.167Z,95387.47
2022-09-23T09:49:23.289Z,95389.91
2022-09-23T09:52:22.336Z,95379.38
2022-09-23T09:54:50.970Z,95394.06
2022-09-23T09:57:35.255Z,95384.69
2022-09-23T10:00:25.242Z,95389.63
2022-09-23T10:03:30.352Z,95381.06
2022-09-23T10:05:57.753Z,95373.81
2022-09-23T10:08:35.042Z,95383.41
2022-09-23T10:11:16.678Z,95380.84
2022-09-23T10:14:15.980Z,95374.00
2022-09-23T10:16:43.264Z,95359.13
2022-09-23T10:19:26.117Z,95367.03
2022-09-23T10:21:59.906Z,95361.38
2022-09-23T10:24:30.573Z,95357.47
2022-09-23T10:27:14.011Z,95354.78
2022-09-23T10:29:49.404Z,95353.22
2022-09-23T10:32:27.849Z,95347.06
2022-09-23T10:35:14.981Z,95348.03
2022-09-23T10:37:50.048Z,95347.81
2022-09-23T10:40:44.812Z,95341.72
2022-09-23T10:44:09.168Z,95338.75
2022-09-23T10:46:41.236Z,95338.91
2022-09-23T10:49:52.380Z,95342.97
2022-09-23T10:52:56.814Z,95339.50
2022-09-23T10:55:41.592Z,95332.84
2022-09-23T10:58:29.964Z,95333.09
2022-09-23T11:01:13.469Z,95336.59
2022-09-23T11:04:07.891Z,95314.44
2022-09-23T11:07:07.326Z,95323.72
2022-09-23T11:09:46.658Z,95321.13
2022-09-23T11:12:25.424Z,95314.75
2022-09-23T11:15:20.919Z,95310.44
2022-09-23T11:18:09.063Z,95302.91
2022-09-23T11:21:26.792Z,95295.50
2022-09-23T11:23:54.293Z,95297.84
2022-09-23T11:26:34.125Z,95298.78
2022-09-23T11:29:09.884Z,95289.09
2022-09-23T11:31:59.430Z,95294.41
2022-09-23T11:34:36.949Z,95285.94
2022-09-23T11:37:14.064Z,95288.44
2022-09-23T11:39:50.492Z,95290.56
2022-09-23T11:42:28.849Z,95285.06
2022-09-23T11:45:15.000Z,95284.50
2022-09-23T11:47:59.959Z,95274.03
2022-09-23T11:50:33.235Z,95268.06
2022-09-23T11:53:26.309Z,95275.91
2022-09-23T11:56:04.116Z,95264.53
2022-09-23T11:58:51.444Z,95265.53
2022-09-23T12:01:37.241Z,95249.16
2022-09-23T12:04:21.195Z,95258.41
2022-09-23T12:07:11.588Z,95256.81
2022-09-23T12:09:57.848Z,95264.91
2022-09-23T12:12:50.080Z,95272.44
2022-09-23T12:15:45.280Z,95274.50
2022-09-23T12:18:42.938Z,95280.28
2022-09-23T12:21:45.873Z,95280.78
2022-09-23T12:24:21.358Z,95289.84
2022-09-23T12:26:57.294Z,95277.94
2022-09-23T12:31:59.786Z,95279.25
2022-09-23T12:34:49.116Z,95282.50
2022-09-23T12:37:38.087Z,95269.22
2022-09-23T12:40:43.480Z,95269.91
2022-09-23T12:43:34.746Z,95271.59
2022-09-23T12:46:25.739Z,95274.22
2022-09-23T12:48:59.201Z,95271.97
2022-09-23T12:51:35.675Z,95266.63
2022-09-23T12:54:05.631Z,95268.72
2022-09-23T12:56:38.694Z,95259.25
2022-09-23T12:59:32.763Z,95259.13
2022-09-23T13:02:25.116Z,95262.25
2022-09-23T13:05:16.273Z,95256.16
2022-09-23T13:07:47.660Z,95257.84
2022-09-23T13:10:20.988Z,95259.69
2022-09-23T13:12:48.265Z,95248.63
2022-09-23T13:15:36.431Z,95261.72
2022-09-23T13:18:21.677Z,95257.41
2022-09-23T13:20:50.452Z,95252.84
2022-09-23T13:23:21.389Z,95250.81
2022-09-23T13:25:51.733Z,95258.59
2022-09-23T13:28:56.811Z,95256.88
2022-09-23T13:31:24.069Z,95258.34
2022-09-23T13:33:59.667Z,95250.09
2022-09-23T13:36:27.027Z,95253.38
2022-09-23T13:38:53.801Z,95259.84
2022-09-23T13:41:25.585Z,95255.81
2022-09-23T13:43:58.809Z,95244.16
2022-09-23T13:46:30.026Z,95253.47
2022-09-23T13:48:57.107Z,95244.44
2022-09-23T13:51:30.520Z,95252.44
2022-09-23T13:54:00.839Z,95249.97
2022-09-23T13:56:32.988Z,95246.69
2022-09-23T13:59:38.687Z,95245.91
2022-09-23T14:02:07.044Z,95249.47
2022-09-23T14:04:33.799Z,95227.00
2022-09-23T14:07:01.966Z,95242.03
2022-09-23T14:09:30.428Z,95243.69
2022-09-23T14:12:00.372Z,95245.47
2022-09-23T14:14:29.392Z,95246.34
2022-09-23T14:16:57.865Z,95240.84
2022-09-23T14:19:25.937Z,95237.06
2022-09-23T14:21:54.496Z,95238.59
2022-09-23T14:24:32.168Z,95226.66
2022-09-23T14:27:04.115Z,95231.69
2022-09-23T14:29:33.551Z,95228.38
2022-09-23T14:32:06.812Z,95222.34
2022-09-23T14:35:03.521Z,95230.31
2022-09-23T14:37:54.974Z,95236.28
2022-09-23T14:40:25.014Z,95224.97
2022-09-23T14:43:02.639Z,95233.78
2022-09-23T14:45:36.264Z,95240.13
2022-09-23T14:48:25.435Z,95230.91
2022-09-23T14:51:01.444Z,95227.88
2022-09-23T14:53:28.212Z,95229.44
2022-09-23T14:56:06.807Z,95223.16
2022-09-23T14:58:52.832Z,95228.59
2022-09-23T15:01:32.373Z,95225.88
2022-09-23T15:04:00.498Z,95226.59
2022-09-23T15:06:27.683Z,95224.72
2022-09-23T15:08:55.947Z,95222.56
2022-09-23T15:11:23.067Z,95226.31
2022-09-23T15:13:52.769Z,95229.19
2022-09-23T15:16:27.326Z,95231.22
2022-09-23T15:18:57.740Z,95243.66
2022-09-23T15:21:25.877Z,95240.09
2022-09-23T15:23:57.514Z,95239.41
2022-09-23T15:26:47.237Z,95236.91
2022-09-23T15:29:14.232Z,95235.66
2022-09-23T15:31:40.968Z,95227.50
2022-09-23T15:34:10.921Z,95232.25
2022-09-23T15:36:38.685Z,95240.50
2022-09-23T15:39:08.672Z,95239.94
2022-09-23T15:41:35.474Z,95242.47
2022-09-23T15:44:29.921Z,95238.56
2022-09-23T15:47:01.124Z,95250.75
2022-09-23T15:49:36.253Z,95252.06
2022-09-23T15:52:05.379Z,95254.00
2022-09-23T15:54:32.578Z,95261.09
2022-09-23T15:57:01.145Z,95262.94
2022-09-23T15:59:29.829Z,95266.34
2022-09-23T16:01:59.193Z,95271.41
2022-09-23T16:04:26.168Z,95273.38
2022-09-23T16:06:53.446Z,95267.47
2022-09-23T16:09:20.183Z,95278.59
2022-09-23T16:11:49.287Z,95272.66
2022-09-23T16:14:18.267Z,95269.81
2022-09-23T16:16:47.865Z,95274.00
2022-09-23T16:19:15.714Z,95277.78
2022-09-23T16:21:43.501Z,95281.00
2022-09-23T16:24:18.853Z,95276.38
2022-09-23T16:26:48.184Z,95286.25
2022-09-23T16:29:15.584Z,95284.84
2022-09-23T16:31:42.796Z,95289.72
2022-09-23T16:34:09.939Z,95289.47
2022-09-23T16:36:41.925Z,95282.75
2022-09-23T16:39:12.418Z,95284.31
2022-09-23T16:41:40.158Z,95293.16
2022-09-23T16:44:08.281Z,95285.78
2022-09-23T16:46:35.213Z,95303.22
2022-09-23T16:49:02.132Z,95295.56
2022-09-23T16:51:38.589Z,95301.19
2022-09-23T16:54:11.268Z,95297.13
2022-09-23T16:56:44.389Z,95302.84
2022-09-23T16:59:16.613Z,95311.31
2022-09-23T17:02:02.249Z,95307.78
2022-09-23T17:04:29.283Z,95323.88
2022-09-23T17:06:56.504Z,95318.13
2022-09-23T17:09:26.104Z,95317.50
2022-09-23T17:12:19.957Z,95329.00
2022-09-23T17:14:46.918Z,95335.50
2022-09-23T17:17:13.631Z,95340.84
2022-09-23T17:19:41.414Z,95334.53
2022-09-23T17:22:08.195Z,95333.19
2022-09-23T17:24:35.131Z,95339.97
2022-09-23T17:27:01.914Z,95341.25
2022-09-23T17:29:29.174Z,95348.25
2022-09-23T17:31:56.183Z,95345.22
2022-09-23T17:34:24.119Z,95354.59
2022-09-23T17:36:50.974Z,95348.59
2022-09-23T17:39:17.901Z,95352.84
2022-09-23T17:41:45.531Z,95356.88
2022-09-23T17:44:12.630Z,95356.13
2022-09-23T17:46:39.382Z,95349.31
2022-09-23T17:49:06.794Z,95352.56
2022-09-23T17:51:33.657Z,95355.72
2022-09-23T17:54:00.445Z,95348.81
2022-09-23T17:56:29.870Z,95349.56
2022-09-23T17:59:01.635Z,95362.47
2022-09-23T18:01:29.254Z,95363.53
2022-09-23T18:03:57.206Z,95368.09
2022-09-23T18:06:26.786Z,95360.50
2022-09-23T18:08:55.971Z,95357.31
2022-09-23T18:11:28.416Z,95363.69
2022-09-23T18:13:59.454Z,95367.53
2022-09-23T18:16:29.239Z,95374.22
2022-09-23T18:18:59.289Z,95374.69
2022-09-23T18:21:33.116Z,95367.75
2022-09-23T18:24:21.618Z,95386.31
2022-09-23T18:26:49.807Z,95377.59
2022-09-23T18:29:17.229Z,95379.91
2022-09-23T18:31:45.057Z,95376.78
2022-09-23T18:34:14.159Z,95376.69
2022-09-23T18:36:41.402Z,95377.59
2022-09-23T18:39:08.273Z,95381.91
2022-09-23T18:41:35.659Z,95388.22
2022-09-23T18:44:03.871Z,95382.53
2022-09-23T18:46:31.479Z,95388.94
2022-09-23T18:49:17.617Z,95386.91
2022-09-23T18:51:56.071Z,95384.63
2022-09-23T18:54:25.326Z,95396.69
2022-09-23T18:56:52.844Z,95385.59
2022-09-23T18:59:29.453Z,95386.72
2022-09-23T19:01:57.324Z,95400.09
2022-09-23T19:04:25.638Z,95393.63
2022-09-23T19:06:54.754Z,95398.50
2022-09-23T19:09:21.442Z,95396.28
2022-09-23T19:11:52.284Z,95400.00
2022-09-23T19:14:19.374Z,95401.75
2022-09-23T19:16:49.011Z,95402.31
2022-09-23T19:19:15.995Z,95399.16
2022-09-23T19:21:42.725Z,95384.28
2022-09-23T19:24:14.707Z,95409.47
2022-09-23T19:26:42.012Z,95404.78
2022-09-23T19:29:14.403Z,95402.09
2022-09-23T19:31:42.107Z,95397.34
2022-09-23T19:34:17.723Z,95411.41
2022-09-23T19:36:47.112Z,95407.72
2022-09-23T19:39:22.668Z,95420.13
2022-09-23T19:41:51.320Z,95414.13
2022-09-23T19:44:20.014Z,95409.28
2022-09-23T19:46:53.386Z,95415.38
2022-09-23T19:49:24.316Z,95412.81
2022-09-23T19:51:51.192Z,95422.78
2022-09-23T19:54:20.633Z,95412.44
2022-09-23T19:56:49.973Z,95420.91
2022-09-23T19:59:19.049Z,95399.03
2022-09-23T20:01:47.510Z,95413.28
2022-09-23T20:04:16.009Z,95411.41
2022-09-23T20:06:43.215Z,95411.78
2022-09-23T20:09:10.223Z,95413.22
2022-09-23T20:11:37.219Z,95414.34
2022-09-23T20:14:06.939Z,95420.22
2022-09-23T20:16:36.858Z,95416.63
2022-09-23T20:19:05.621Z,95415.44
2022-09-23T20:21:33.727Z,95413.41
2022-09-23T20:24:07.728Z,95417.31
2022-09-23T20:26:53.505Z,95426.38
2022-09-23T20:29:20.583Z,95423.06
2022-09-23T20:31:47.708Z,95429.56
2022-09-23T20:34:15.141Z,95433.94
2022-09-23T20:36:42.572Z,95435.34
2022-09-23T20:39:10.376Z,95429.69
2022-09-23T20:41:39.266Z,95437.06
2022-09-23T20:44:10.460Z,95441.00
2022-09-23T20:46:37.888Z,95444.75
2022-09-23T20:49:04.975Z,95435.28
2022-09-23T20:51:34.987Z,95434.34
2022-09-23T20:54:01.921Z,95438.56
2022-09-23T20:56:29.771Z,95443.81
2022-09-23T20:59:04.550Z,95448.81
2022-09-23T21:01:36.579Z,95441.22
2022-09-23T21:04:06.947Z,95448.56
2022-09-23T21:06:35.202Z,95455.03
2022-09-23T21:09:02.339Z,95447.56
2022-09-23T21:11:30.068Z,95460.75
2022-09-23T21:13:58.754Z,95446.97
2022-09-23T21:16:25.872Z,95457.66
2022-09-23T21:18:52.984Z,95454.81
2022-09-23T21:21:22.198Z,95465.31
2022-09-23T21:23:49.549Z,95454.47
2022-09-23T21:26:23.390Z,95450.25
2022-09-23T21:28:59.616Z,95460.31
2022-09-23T21:31:31.267Z,95460.31
2022-09-23T21:34:02.875Z,95451.81
2022-09-23T21:36:32.720Z,95456.59
2022-09-23T21:39:01.718Z,95444.75
2022-09-23T21:41:28.719Z,95458.69
2022-09-23T21:43:56.357Z,95463.47
2022-09-23T21:46:24.485Z,95467.13
2022-09-23T21:48:54.940Z,95470.84
2022-09-23T21:51:25.592Z,95454.53
2022-09-23T21:53:54.953Z,95464.53
2022-09-23T21:56:23.857Z,95472.22
2022-09-23T21:58:52.397Z,95473.50
2022-09-23T22:01:24.978Z,95475.06
2022-09-23T22:03:54.651Z,95476.19
2022-09-23T22:06:23.758Z,95479.56
2022-09-23T22:08:53.638Z,95476.97
2022-09-23T22:11:41.583Z,95473.53
2022-09-23T22:14:12.596Z,95462.19
2022-09-23T22:16:40.258Z,95462.44
2022-09-23T22:19:07.611Z,95468.78
2022-09-23T22:21:38.114Z,95476.69
2022-09-23T22:24:07.366Z,95474.81
2022-09-23T22:26:43.584Z,95475.38
2022-09-23T22:29:33.570Z,95459.28
2022-09-23T22:32:20.446Z,95474.03
2022-09-23T22:34:52.547Z,95461.91
2022-09-23T22:37:25.793Z,95476.69
2022-09-23T22:39:53.890Z,95469.03
2022-09-23T22:42:23.597Z,95472.97
2022-09-23T22:44:51.210Z,95472.44
2022-09-23T22:47:19.884Z,95471.44
2022-09-23T22:49:47.334Z,95476.69
2022-09-23T22:52:16.257Z,95462.19
2022-09-23T22:54:43.304Z,95465.88
2022-09-23T22:57:10.375Z,95474.22
2022-09-23T22:59:37.882Z,95469.53
2022-09-23T23:02:07.125Z,95475.00
2022-09-23T23:04:34.120Z,95459.72
2022-09-23T23:07:00.858Z,95462.13
2022-09-23T23:09:27.560Z,95476.88
2022-09-23T23:11:54.368Z,95471.59
2022-09-23T23:14:21.490Z,95476.06
2022-09-23T23:16:48.383Z,95473.75
2022-09-23T23:19:17.140Z,95465.84
2022-09-23T23:21:45.428Z,95426.47
2022-09-23T23:24:23.039Z,95471.88
2022-09-23T23:26:51.270Z,95470.84
2022-09-23T23:29:20.617Z,95471.34
2022-09-23T23:31:48.345Z,95483.16
2022-09-23T23:34:20.345Z,95476.06
2022-09-23T23:36:54.910Z,95466.59
2022-09-23T23:39:24.251Z,95464.50
2022-09-23T23:41:55.492Z,95461.28
2022-09-23T23:44:24.635Z,95464.34
2022-09-23T23:46:52.258Z,95460.41
2022-09-23T23:49:19.627Z,95476.53
2022-09-23T23:51:46.535Z,95464.47
2022-09-23T23:54:15.251Z,95452.50
2022-09-23T23:56:42.552Z,95452.72
2022-09-23T23:59:09.696Z,95460.63
